Time;durP1;ratioP1;P1;durP2;ratioP2;P2;SDS_P1;SDS_P2;PMS_P1;PMS_P2;Temp;Humidity;BMP_temperature;BMP_pressure;BME280_temperature;BME280_humidity;BME280_pressure;Samples;Min_cycle;Max_cycle;Signal;HPM_P1;HPM_P2
2022/10/16 00:00:38;;;;;;;13.63;2.03;;;;;;;9.93;100.00;99346.41;5072534;28;20076;-72
2022/10/16 00:03:05;;;;;;;20.42;2.00;;;;;;;10.09;100.00;99368.91;5076052;28;20049;-72
2022/10/16 00:05:30;;;;;;;14.10;1.58;;;;;;;10.20;100.00;99355.97;5073358;28;20065;-73
2022/10/16 00:07:56;;;;;;;14.52;1.77;;;;;;;10.27;98.92;99377.47;5057285;28;20035;-73
2022/10/16 00:10:22;;;;;;;17.58;2.70;;;;;;;10.28;98.58;99373.66;5056357;28;20024;-72
2022/10/16 00:12:47;;;;;;;26.02;3.50;;;;;;;10.26;98.85;99381.31;5071365;28;20013;-71
2022/10/16 00:15:13;;;;;;;16.63;2.38;;;;;;;10.19;98.44;99384.41;5035061;28;20032;-72
2022/10/16 00:17:38;;;;;;;18.58;2.50;;;;;;;10.16;98.78;99376.75;5070487;28;20025;-71
2022/10/16 00:20:05;;;;;;;17.50;2.38;;;;;;;10.17;99.28;99385.78;5048104;28;20052;-72
2022/10/16 00:22:30;;;;;;;23.55;2.55;;;;;;;10.13;99.71;99401.91;5068632;28;20029;-72
2022/10/16 00:24:56;;;;;;;10.68;1.58;;;;;;;10.10;99.39;99377.91;5046731;28;20020;-72
2022/10/16 00:27:21;;;;;;;16.38;2.00;;;;;;;10.05;99.54;99386.97;5056790;28;20036;-72
2022/10/16 00:29:51;;;;;;;19.38;2.15;;;;;;;9.97;99.70;99395.78;5047342;28;20667;-70
2022/10/16 00:32:17;;;;;;;11.77;1.67;;;;;;;9.89;100.00;99380.84;5070714;28;20216;-71
2022/10/16 00:34:43;;;;;;;11.32;2.03;;;;;;;9.76;100.00;99395.97;5064339;28;20056;-71
2022/10/16 00:37:08;;;;;;;14.75;2.10;;;;;;;9.71;100.00;99387.84;5043974;28;20051;-72
2022/10/16 00:39:34;;;;;;;15.68;3.05;;;;;;;9.74;100.00;99391.91;5063568;28;20024;-73
2022/10/16 00:42:00;;;;;;;13.10;1.63;;;;;;;9.82;100.00;99388.56;5066891;28;20032;-72
2022/10/16 00:44:47;;;;;;;15.57;1.60;;;;;;;9.85;100.00;99387.97;5037805;28;20116;-72
2022/10/16 00:47:35;;;;;;;9.80;1.48;;;;;;;9.84;99.40;99389.09;5067035;28;20024;-71
2022/10/16 00:50:11;;;;;;;11.55;1.92;;;;;;;9.79;99.26;99389.94;5067527;28;20033;-72
2022/10/16 00:52:41;;;;;;;8.82;1.90;;;;;;;9.73;99.31;99401.19;5052806;28;20040;-72
2022/10/16 00:55:09;;;;;;;21.20;2.70;;;;;;;9.70;98.82;99401.78;5055240;28;20024;-73
2022/10/16 00:57:34;;;;;;;9.60;1.50;;;;;;;9.68;98.28;99403.94;5050377;28;20025;-72
2022/10/16 01:00:01;;;;;;;23.55;2.75;;;;;;;9.61;96.61;99394.19;5057732;28;20402;-71
2022/10/16 01:02:26;;;;;;;6.18;1.27;;;;;;;9.62;96.05;99416.81;5055582;28;20118;-72
2022/10/16 01:04:54;;;;;;;10.55;1.13;;;;;;;9.67;93.63;99451.47;5071209;28;20025;-72
2022/10/16 01:07:47;;;;;;;14.07;1.10;;;;;;;9.71;92.75;99415.13;5066088;28;20048;-72
2022/10/16 01:10:22;;;;;;;11.27;1.75;;;;;;;9.71;90.66;99400.66;5087580;28;20033;-72
2022/10/16 01:12:51;;;;;;;;;;;;;;;9.78;86.36;99412.06;5061010;28;20024;-72
2022/10/16 01:15:30;;;;;;;9.05;2.42;;;;;;;9.82;86.50;99402.19;5071302;28;20440;-72
2022/10/16 01:18:08;;;;;;;10.65;1.45;;;;;;;9.81;86.17;99399.75;5059412;28;20064;-72
2022/10/16 01:20:40;;;;;;;11.32;1.63;;;;;;;9.77;85.89;99407.72;5070736;28;20634;-73
2022/10/16 01:23:57;;;;;;;6.70;1.70;;;;;;;9.82;85.38;99412.31;5046046;28;20020;-74
2022/10/16 01:26:49;;;;;;;9.75;1.70;;;;;;;9.78;85.68;99401.13;5050438;28;20037;-72
2022/10/16 01:29:21;;;;;;;6.68;1.40;;;;;;;9.74;86.26;99413.75;5059447;28;20032;-72
2022/10/16 01:31:53;;;;;;;15.95;1.40;;;;;;;9.72;86.63;99435.03;5072953;28;20036;-72
2022/10/16 01:34:31;;;;;;;8.77;1.38;;;;;;;9.63;86.92;99418.47;5046365;28;20035;-74
2022/10/16 01:37:05;;;;;;;12.43;1.75;;;;;;;9.69;86.93;99421.97;5060215;28;20057;-73
2022/10/16 01:39:35;;;;;;;9.65;1.50;;;;;;;9.66;87.30;99428.00;5070358;28;20087;-73
2022/10/16 01:42:07;;;;;;;14.07;1.60;;;;;;;9.63;87.63;99429.38;5065550;28;20153;-73
2022/10/16 01:44:36;;;;;;;14.75;1.70;;;;;;;9.59;88.02;99423.69;5064084;28;20047;-72
2022/10/16 01:47:02;;;;;;;11.88;2.15;;;;;;;9.55;88.57;99430.81;5050968;28;20036;-73
2022/10/16 01:49:32;;;;;;;12.23;1.95;;;;;;;9.51;88.56;99443.38;5064969;28;20025;-73
2022/10/16 01:52:02;;;;;;;11.40;1.45;;;;;;;9.53;88.20;99432.19;5067673;28;20029;-73
2022/10/16 01:54:30;;;;;;;8.90;1.40;;;;;;;9.61;88.95;99435.13;5058978;28;20020;-72
2022/10/16 01:56:58;;;;;;;10.82;1.65;;;;;;;9.66;88.63;99441.66;5070985;28;20556;-72
2022/10/16 01:59:29;;;;;;;13.27;1.75;;;;;;;9.61;89.08;99434.31;5041558;28;20050;-72
2022/10/16 02:01:59;;;;;;;11.23;1.85;;;;;;;9.51;89.11;99440.66;5068738;28;20073;-73
2022/10/16 02:04:31;;;;;;;15.02;1.17;;;;;;;9.40;89.81;99452.72;5066417;28;20509;-73
2022/10/16 02:06:57;;;;;;;8.43;1.85;;;;;;;9.27;90.41;99448.69;5055397;28;20138;-73
2022/10/16 02:09:23;;;;;;;9.38;1.65;;;;;;;9.20;90.96;99450.91;5064785;28;20091;-72
2022/10/16 02:11:52;;;;;;;8.18;1.20;;;;;;;9.13;91.82;99451.22;5058239;28;20036;-73
2022/10/16 02:14:19;;;;;;;7.10;1.48;;;;;;;9.19;92.27;99454.75;5054569;28;20025;-74
2022/10/16 02:16:46;;;;;;;12.40;2.00;;;;;;;9.24;91.73;99455.56;5066912;28;20153;-73
2022/10/16 02:19:19;;;;;;;10.73;1.52;;;;;;;9.23;91.29;99444.91;5041522;28;20032;-72
2022/10/16 02:22:02;;;;;;;23.95;2.78;;;;;;;9.28;90.93;99455.78;5039751;28;20035;-74
2022/10/16 02:24:33;;;;;;;13.52;1.90;;;;;;;9.37;90.28;99453.28;5067355;28;20024;-73
2022/10/16 02:27:17;;;;;;;9.43;1.55;;;;;;;9.42;88.97;99462.25;5053529;28;20089;-73
2022/10/16 02:29:50;;;;;;;9.50;1.67;;;;;;;9.43;88.12;99457.63;5056378;28;20032;-74
2022/10/16 02:32:19;;;;;;;11.50;1.52;;;;;;;9.45;87.93;99458.16;5073850;28;20035;-74
2022/10/16 02:34:47;;;;;;;15.55;2.05;;;;;;;9.42;88.10;99466.91;5066033;28;20013;-74
2022/10/16 02:37:12;;;;;;;17.40;2.03;;;;;;;9.43;87.56;99452.16;5072771;28;20012;-73
2022/10/16 02:39:42;;;;;;;9.35;1.83;;;;;;;9.44;87.44;99464.72;5061021;28;20032;-72
2022/10/16 02:42:14;;;;;;;9.68;1.50;;;;;;;9.43;87.97;99474.81;5068175;28;20107;-72
2022/10/16 02:44:40;;;;;;;19.15;1.80;;;;;;;9.43;87.41;99480.28;5061844;28;20072;-73
2022/10/16 02:47:06;;;;;;;24.02;1.92;;;;;;;9.41;88.30;99492.56;5044163;28;20051;-73
2022/10/16 02:49:31;;;;;;;10.93;1.50;;;;;;;9.40;87.70;99490.91;5045084;28;20104;-72
2022/10/16 02:51:57;;;;;;;13.00;1.88;;;;;;;9.39;87.38;99494.78;5046376;28;20044;-72
2022/10/16 02:54:22;;;;;;;16.70;2.13;;;;;;;9.39;87.10;99492.03;5064143;28;20051;-72
2022/10/16 02:56:48;;;;;;;6.10;1.15;;;;;;;9.36;87.32;99506.22;5044895;28;20543;-72
2022/10/16 02:59:13;;;;;;;18.80;3.50;;;;;;;9.30;87.36;99501.88;5056576;28;20032;-71
2022/10/16 03:01:39;;;;;;;5.65;1.35;;;;;;;9.30;87.65;99507.34;5063046;28;20024;-73
2022/10/16 03:04:04;;;;;;;8.05;1.58;;;;;;;9.20;87.19;99505.47;5035249;28;20074;-72
2022/10/16 03:06:29;;;;;;;11.88;1.30;;;;;;;9.07;87.89;99507.72;5037363;28;20036;-71
2022/10/16 03:08:55;;;;;;;9.65;1.65;;;;;;;9.02;88.04;99504.19;5057930;28;20035;-72
2022/10/16 03:11:20;;;;;;;7.90;1.60;;;;;;;8.98;88.33;99505.84;5039090;28;20126;-71
2022/10/16 03:13:46;;;;;;;16.13;2.25;;;;;;;8.91;89.16;99498.78;5049797;28;20029;-71
2022/10/16 03:16:11;;;;;;;19.88;2.08;;;;;;;8.97;88.70;99504.22;5048717;28;20025;-71
2022/10/16 03:18:37;;;;;;;12.95;1.63;;;;;;;9.01;87.80;99511.56;5080580;28;20037;-71
2022/10/16 03:21:02;;;;;;;11.38;1.08;;;;;;;9.00;87.01;99506.38;5045030;28;20056;-71
2022/10/16 03:23:28;;;;;;;6.25;1.33;;;;;;;9.01;86.02;99508.00;5056068;28;20111;-71
2022/10/16 03:25:54;;;;;;;13.68;1.33;;;;;;;9.00;85.70;99529.00;5020096;28;20382;-72
2022/10/16 03:28:19;;;;;;;11.52;1.75;;;;;;;8.98;84.47;99523.03;5059508;28;20100;-71
2022/10/16 03:30:45;;;;;;;7.82;1.58;;;;;;;9.01;83.80;99521.63;5060763;28;20032;-71
2022/10/16 03:33:10;;;;;;;9.48;1.55;;;;;;;9.01;83.16;99525.19;5054476;28;20064;-71
2022/10/16 03:35:36;;;;;;;8.38;1.48;;;;;;;9.00;82.31;99530.94;5045668;28;20092;-72
2022/10/16 03:38:01;;;;;;;11.15;1.73;;;;;;;8.99;82.27;99527.38;5058493;28;20025;-72
2022/10/16 03:40:27;;;;;;;9.77;1.60;;;;;;;8.95;82.19;99533.66;5054718;28;20029;-71
2022/10/16 03:42:55;;;;;;;9.52;1.77;;;;;;;8.95;81.93;99533.66;5045074;28;20032;-72
2022/10/16 03:45:20;;;;;;;11.88;1.83;;;;;;;8.93;81.94;99535.84;5047277;28;20032;-71
2022/10/16 03:47:45;;;;;;;14.45;1.92;;;;;;;8.89;81.62;99546.47;5026582;28;20032;-73
2022/10/16 03:50:11;;;;;;;7.82;1.73;;;;;;;8.91;81.32;99556.03;5039083;28;20043;-74
2022/10/16 03:52:36;;;;;;;12.07;1.42;;;;;;;8.87;81.88;99549.47;5051728;28;20037;-72
2022/10/16 03:55:02;;;;;;;8.02;1.23;;;;;;;8.87;81.70;99554.94;5047733;28;20058;-72
2022/10/16 03:57:28;;;;;;;16.23;1.70;;;;;;;8.81;82.07;99563.41;5059913;28;20036;-71
2022/10/16 03:59:53;;;;;;;7.70;1.35;;;;;;;8.77;82.32;99571.31;5047000;28;20095;-71
2022/10/16 04:02:19;;;;;;;14.10;1.90;;;;;;;8.73;83.13;99575.69;5055707;28;20135;-73
2022/10/16 04:04:44;;;;;;;8.43;1.17;;;;;;;8.70;83.49;99576.22;5057894;28;20121;-72
2022/10/16 04:07:10;;;;;;;8.70;1.52;;;;;;;8.73;83.83;99581.13;5058504;28;20024;-72
2022/10/16 04:09:35;;;;;;;13.48;2.15;;;;;;;8.78;84.07;99588.50;5069217;28;20017;-72
2022/10/16 04:12:00;;;;;;;9.15;1.77;;;;;;;8.78;83.76;99589.31;5051977;28;20044;-71
2022/10/16 04:14:26;;;;;;;10.40;2.10;;;;;;;8.73;84.45;99592.03;5056704;28;20133;-71
2022/10/16 04:16:51;;;;;;;14.50;1.70;;;;;;;8.74;85.33;99610.03;5047089;28;20036;-71
2022/10/16 04:19:17;;;;;;;6.95;1.90;;;;;;;8.71;85.36;99594.22;5033489;28;20039;-70
2022/10/16 04:21:54;;;;;;;13.52;2.80;;;;;;;8.70;85.87;99603.47;5017604;28;20082;-71
2022/10/16 04:24:19;;;;;;;13.85;2.00;;;;;;;8.72;85.90;99610.31;5043028;28;20072;-71
2022/10/16 04:26:44;;;;;;;16.90;2.85;;;;;;;8.79;85.55;99612.78;5058402;28;20043;-71
2022/10/16 04:29:10;;;;;;;19.70;2.33;;;;;;;8.84;85.62;99615.47;5050899;28;20603;-70
2022/10/16 04:31:35;;;;;;;15.02;1.98;;;;;;;8.85;85.51;99617.13;5045338;28;20033;-70
2022/10/16 04:34:01;;;;;;;13.18;2.10;;;;;;;8.89;85.50;99623.66;5060178;28;20045;-71
2022/10/16 04:36:26;;;;;;;11.88;2.08;;;;;;;8.85;85.45;99628.03;5029955;28;20544;-71
2022/10/16 04:38:51;;;;;;;18.80;2.85;;;;;;;8.85;85.79;99630.75;5048839;28;20065;-70
2022/10/16 04:41:17;;;;;;;9.05;1.45;;;;;;;8.86;86.11;99635.13;5057147;28;20162;-69
2022/10/16 04:43:42;;;;;;;17.55;2.33;;;;;;;8.85;86.17;99630.75;5081618;28;20421;-70
2022/10/16 04:46:10;;;;;;;12.68;1.70;;;;;;;8.85;86.37;99633.47;5057281;28;20074;-71
2022/10/16 04:48:35;;;;;;;17.23;2.03;;;;;;;8.85;86.28;99643.56;5066110;28;20036;-71
2022/10/16 04:51:01;;;;;;;18.15;2.53;;;;;;;8.87;86.43;99642.19;5048518;28;20082;-71
2022/10/16 04:53:26;;;;;;;8.80;1.65;;;;;;;8.90;86.05;99647.09;5052354;28;20040;-70
2022/10/16 04:55:52;;;;;;;19.67;2.35;;;;;;;8.93;86.23;99636.75;5055239;28;20028;-70
2022/10/16 04:58:17;;;;;;;7.72;2.25;;;;;;;8.97;85.95;99646.00;5041682;28;20269;-71
2022/10/16 05:00:44;;;;;;;15.43;2.35;;;;;;;8.97;85.60;99654.19;5076659;28;20040;-71
2022/10/16 05:03:09;;;;;;;17.40;2.28;;;;;;;8.93;85.75;99644.94;5070699;28;20048;-71
2022/10/16 05:05:36;;;;;;;15.02;2.03;;;;;;;8.94;85.49;99654.75;5068394;28;20032;-70
2022/10/16 05:08:02;;;;;;;14.98;2.05;;;;;;;8.97;85.73;99665.09;5068763;28;20701;-70
2022/10/16 05:10:28;;;;;;;14.43;1.50;;;;;;;8.98;85.86;99666.72;5073375;28;20055;-71
2022/10/16 05:12:53;;;;;;;12.70;1.52;;;;;;;8.91;86.12;99678.72;5059036;28;20474;-70
2022/10/16 05:15:19;;;;;;;13.65;2.08;;;;;;;8.86;85.85;99684.19;5044622;28;20088;-71
2022/10/16 05:17:45;;;;;;;10.18;2.33;;;;;;;8.81;85.90;99686.91;5031342;28;20040;-72
2022/10/16 05:20:13;;;;;;;10.80;2.28;;;;;;;8.76;86.87;99689.66;5065124;28;20044;-70
2022/10/16 05:22:38;;;;;;;9.85;1.67;;;;;;;8.68;86.45;99685.53;5068087;28;20028;-69
2022/10/16 05:25:04;;;;;;;15.05;2.35;;;;;;;8.70;86.40;99690.72;5054803;28;20091;-71
2022/10/16 05:27:30;;;;;;;13.45;1.88;;;;;;;8.68;86.76;99692.91;5043135;28;20067;-71
2022/10/16 05:29:55;;;;;;;16.85;1.98;;;;;;;8.65;86.75;99699.69;5064656;28;20013;-71
2022/10/16 05:32:23;;;;;;;10.63;1.58;;;;;;;8.62;86.94;99704.91;5061464;28;20135;-71
2022/10/16 05:34:48;;;;;;;8.00;2.00;;;;;;;8.60;87.35;99707.06;5044211;28;20039;-71
2022/10/16 05:37:16;;;;;;;12.70;2.03;;;;;;;8.59;87.31;99710.88;5057603;28;20048;-71
2022/10/16 05:39:41;;;;;;;8.80;1.45;;;;;;;8.56;87.19;99713.03;5032340;28;20091;-70
2022/10/16 05:42:07;;;;;;;9.40;1.50;;;;;;;8.46;87.23;99701.31;5066547;28;20477;-71
2022/10/16 05:44:33;;;;;;;12.73;2.10;;;;;;;8.36;87.43;99712.97;5039105;28;20066;-69
2022/10/16 05:46:58;;;;;;;12.10;1.48;;;;;;;8.28;87.67;99718.94;5056240;28;20025;-71
2022/10/16 05:49:24;;;;;;;9.35;1.65;;;;;;;8.18;87.94;99717.84;5053285;28;20137;-74
2022/10/16 05:51:49;;;;;;;5.78;1.33;;;;;;;8.18;88.27;99723.28;5067098;28;20124;-74
2022/10/16 05:54:15;;;;;;;12.57;1.70;;;;;;;8.15;87.81;99723.00;5054373;28;20029;-74
2022/10/16 05:56:40;;;;;;;8.40;1.65;;;;;;;8.15;88.37;99729.25;5042106;28;20678;-74
2022/10/16 05:59:06;;;;;;;12.10;1.55;;;;;;;8.15;88.46;99729.25;5062159;28;20051;-71
2022/10/16 06:01:32;;;;;;;7.50;1.60;;;;;;;8.18;88.45;99728.72;5059400;28;20025;-72
2022/10/16 06:03:57;;;;;;;6.35;1.10;;;;;;;8.20;87.84;99742.88;5052873;28;20258;-72
2022/10/16 06:06:25;;;;;;;12.32;1.55;;;;;;;8.13;88.15;99734.16;5064470;28;20037;-70
2022/10/16 06:08:52;;;;;;;4.13;1.10;;;;;;;8.08;88.49;99736.84;5066372;28;20037;-69
2022/10/16 06:11:25;;;;;;;3.58;0.90;;;;;;;8.03;88.69;99742.25;5081601;28;20029;-71
2022/10/16 06:13:51;;;;;;;2.55;0.70;;;;;;;7.92;89.06;99735.16;5063737;28;20021;-70
2022/10/16 06:16:17;;;;;;;4.53;0.88;;;;;;;7.84;88.69;99753.63;5046182;28;20036;-69
2022/10/16 06:18:43;;;;;;;1.40;0.60;;;;;;;7.70;88.92;99744.28;5064972;28;20025;-71
2022/10/16 06:21:12;;;;;;;4.95;0.68;;;;;;;7.65;89.91;99753.25;5032944;28;20092;-70
2022/10/16 06:23:37;;;;;;;3.63;0.95;;;;;;;7.58;89.90;99749.09;5062995;28;20044;-70
2022/10/16 06:26:12;;;;;;;2.95;0.80;;;;;;;7.52;89.93;99748.28;5060018;28;20016;-71
2022/10/16 06:28:38;;;;;;;3.42;0.80;;;;;;;7.45;89.39;99751.22;5066993;28;20054;-70
2022/10/16 06:31:05;;;;;;;2.42;0.70;;;;;;;7.42;90.35;99759.91;5062053;28;20041;-72
2022/10/16 06:33:34;;;;;;;2.88;0.90;;;;;;;7.45;90.30;99764.81;5064834;28;20059;-72
2022/10/16 06:36:05;;;;;;;2.33;0.80;;;;;;;7.46;89.81;99763.75;5073408;28;20056;-70
2022/10/16 06:38:31;;;;;;;2.10;0.60;;;;;;;7.46;89.47;99765.63;5069738;28;20040;-72
2022/10/16 06:40:57;;;;;;;2.67;0.70;;;;;;;7.44;89.74;99763.16;5048578;28;20029;-71
2022/10/16 06:43:23;;;;;;;5.55;1.27;;;;;;;7.53;89.76;99765.41;5065018;28;20032;-71
2022/10/16 06:45:56;;;;;;;2.95;0.75;;;;;;;7.55;90.08;99774.13;5047587;28;20044;-70
2022/10/16 06:48:23;;;;;;;5.10;0.90;;;;;;;7.58;90.21;99776.31;5080009;28;20046;-71
2022/10/16 06:51:05;;;;;;;5.47;1.40;;;;;;;7.67;89.39;99778.28;5046554;28;20044;-71
2022/10/16 06:53:33;;;;;;;7.75;1.80;;;;;;;7.79;89.54;99780.00;5066124;28;20024;-71
2022/10/16 06:56:21;;;;;;;7.53;1.58;;;;;;;7.89;89.41;99790.94;5057939;28;20017;-71
2022/10/16 06:58:47;;;;;;;9.50;1.55;;;;;;;7.96;89.11;99791.53;5065198;28;20547;-72
2022/10/16 07:01:17;;;;;;;6.85;1.88;;;;;;;8.00;89.45;99802.69;5048014;28;20028;-71
2022/10/16 07:03:46;;;;;;;2.50;0.85;;;;;;;8.00;89.42;99802.69;5045079;28;20056;-70
2022/10/16 07:06:18;;;;;;;4.13;1.08;;;;;;;8.00;88.99;99808.16;5069957;28;20049;-70
2022/10/16 07:08:45;;;;;;;2.67;0.90;;;;;;;8.06;89.05;99818.00;5041385;28;20035;-69
2022/10/16 07:11:13;;;;;;;4.13;0.98;;;;;;;8.15;88.91;99821.84;5074273;28;20024;-70
2022/10/16 07:13:40;;;;;;;3.08;0.95;;;;;;;8.20;88.88;99829.22;5065168;28;20071;-70
2022/10/16 07:16:11;;;;;;;3.85;0.90;;;;;;;8.32;88.53;99831.72;5062044;28;20497;-70
2022/10/16 07:18:38;;;;;;;2.50;0.85;;;;;;;8.48;88.38;99838.09;5078559;28;20475;-70
2022/10/16 07:21:10;;;;;;;3.90;1.30;;;;;;;8.95;89.58;99833.59;5061679;28;20032;-69
2022/10/16 07:23:36;;;;;;;15.95;5.25;;;;;;;9.94;86.35;99831.44;5070413;28;20089;-70
2022/10/16 07:26:02;;;;;;;14.07;5.10;;;;;;;10.84;82.29;99837.16;5073265;28;20035;-71
2022/10/16 07:28:29;;;;;;;11.05;4.90;;;;;;;11.55;78.34;99836.91;5054995;28;20095;-71
2022/10/16 07:30:54;;;;;;;8.82;4.00;;;;;;;12.51;74.81;99847.19;5063244;28;20028;-69
2022/10/16 07:33:20;;;;;;;11.45;3.90;;;;;;;13.40;71.56;99854.78;5051957;28;20124;-73
2022/10/16 07:35:53;;;;;;;6.05;2.28;;;;;;;14.55;67.10;99860.69;5072542;28;20039;-71
2022/10/16 07:38:20;;;;;;;6.07;2.00;;;;;;;15.28;64.56;99857.22;5057477;28;20028;-70
2022/10/16 07:40:46;;;;;;;13.75;1.60;;;;;;;14.83;63.90;99857.94;5061824;28;20032;-71
2022/10/16 07:43:12;;;;;;;6.93;1.20;;;;;;;13.56;66.47;99860.81;5060163;28;20036;-70
2022/10/16 07:45:46;;;;;;;7.68;1.63;;;;;;;12.53;69.06;99861.47;5045375;28;20079;-71
2022/10/16 07:48:11;;;;;;;6.30;1.55;;;;;;;12.08;72.56;99860.84;5064598;28;20025;-70
2022/10/16 07:50:37;;;;;;;5.97;1.10;;;;;;;13.27;71.91;99874.72;5074416;28;20047;-70
2022/10/16 07:53:03;;;;;;;6.07;1.23;;;;;;;15.34;65.73;99867.78;5064929;28;20029;-70
2022/10/16 07:55:28;;;;;;;9.55;1.58;;;;;;;17.15;58.71;99872.06;5058259;28;20029;-70
2022/10/16 07:57:54;;;;;;;5.25;1.02;;;;;;;18.46;54.11;99862.75;5036549;28;20028;-70
2022/10/16 08:00:20;;;;;;;6.93;1.23;;;;;;;19.35;50.98;99870.22;5051115;28;20052;-71
2022/10/16 08:02:45;;;;;;;7.45;1.35;;;;;;;20.17;48.71;99866.81;5035912;28;20086;-70
2022/10/16 08:05:11;;;;;;;3.97;0.80;;;;;;;20.91;46.52;99877.16;5068923;28;20621;-71
2022/10/16 08:07:36;;;;;;;4.20;1.38;;;;;;;21.68;45.02;99881.81;5050711;28;20040;-70
2022/10/16 08:10:02;;;;;;;2.40;1.00;;;;;;;22.15;43.72;99888.66;5032249;28;20028;-71
2022/10/16 08:12:28;;;;;;;3.92;0.80;;;;;;;22.63;43.58;99895.09;5053839;28;20032;-70
2022/10/16 08:14:53;;;;;;;7.35;1.20;;;;;;;23.32;41.63;99893.91;5048514;28;20033;-70
2022/10/16 08:17:18;;;;;;;3.45;0.80;;;;;;;23.57;40.99;99899.16;5033323;28;20412;-70
2022/10/16 08:19:45;;;;;;;3.83;1.15;;;;;;;24.49;39.66;99909.72;5058288;28;20048;-71
2022/10/16 08:22:10;;;;;;;5.82;1.25;;;;;;;25.38;37.50;99910.31;5065178;28;20065;-70
2022/10/16 08:24:36;;;;;;;4.03;1.10;;;;;;;25.60;36.44;99917.00;5037775;28;20395;-71
2022/10/16 08:27:02;;;;;;;4.40;1.48;;;;;;;26.43;35.18;99917.09;5048037;28;20064;-70
2022/10/16 08:29:28;;;;;;;5.00;1.20;;;;;;;26.18;34.02;99922.47;5062821;28;20064;-70
2022/10/16 08:31:53;;;;;;;4.80;1.23;;;;;;;25.87;34.34;99922.50;5046236;28;20043;-69
2022/10/16 08:34:19;;;;;;;4.55;1.35;;;;;;;25.72;33.88;99923.53;5066581;28;20032;-70
2022/10/16 08:36:44;;;;;;;9.07;1.23;;;;;;;25.99;33.55;99926.22;5065574;28;20746;-71
2022/10/16 08:39:09;;;;;;;7.95;1.25;;;;;;;25.94;33.12;99925.38;5045408;28;20641;-70
2022/10/16 08:41:35;;;;;;;7.45;1.50;;;;;;;25.65;33.28;99932.66;5031029;28;20204;-73
2022/10/16 08:44:16;;;;;;;5.30;1.33;;;;;;;25.55;33.73;99930.50;5063824;28;20100;-73
2022/10/16 08:47:04;;;;;;;10.32;1.75;;;;;;;25.40;33.39;99930.31;5049939;28;20073;-70
2022/10/16 08:49:30;;;;;;;10.00;1.77;;;;;;;25.45;33.43;99929.19;5070003;28;20096;-72
2022/10/16 08:51:57;;;;;;;8.35;1.45;;;;;;;25.58;33.29;99924.97;5064187;28;20035;-71
2022/10/16 08:54:34;;;;;;;7.63;1.52;;;;;;;26.17;32.46;99932.88;5052842;28;20051;-69
2022/10/16 08:57:09;;;;;;;5.70;1.02;;;;;;;26.73;31.66;99944.22;5063518;28;20616;-70
2022/10/16 08:59:34;;;;;;;2.97;0.98;;;;;;;28.12;31.44;99946.22;5050272;28;20381;-69
2022/10/16 09:02:01;;;;;;;5.72;1.30;;;;;;;29.74;29.90;99946.13;5061336;28;20108;-71
2022/10/16 09:04:51;;;;;;;4.65;1.20;;;;;;;31.62;27.34;99950.38;5041148;28;20077;-69
2022/10/16 09:07:25;;;;;;;2.15;0.88;;;;;;;33.45;26.71;99946.72;5087318;28;20058;-69
2022/10/16 09:10:19;;;;;;;2.85;0.82;;;;;;;34.66;25.79;99961.53;5059099;28;20021;-71
2022/10/16 09:13:19;;;;;;;6.20;1.20;;;;;;;34.44;25.55;99950.69;5050834;28;20016;-71
2022/10/16 09:16:10;;;;;;;5.80;1.08;;;;;;;34.04;25.85;99958.47;5048298;28;20029;-71
2022/10/16 09:19:09;;;;;;;3.85;0.98;;;;;;;35.28;25.44;99958.75;5054227;28;20032;-72
2022/10/16 09:21:41;;;;;;;4.65;0.80;;;;;;;34.67;25.47;99953.78;5058704;28;20468;-69
2022/10/16 09:24:18;;;;;;;4.65;1.20;;;;;;;33.66;24.91;99945.50;5064476;28;20021;-71
2022/10/16 09:26:45;;;;;;;5.55;1.67;;;;;;;33.35;25.07;99956.25;5054303;28;20685;-70
2022/10/16 09:29:16;;;;;;;6.18;1.50;;;;;;;34.39;24.18;99950.41;5039452;28;20561;-70
2022/10/16 09:31:42;;;;;;;4.93;1.23;;;;;;;35.81;23.05;99949.16;5065681;28;20033;-71
2022/10/16 09:34:33;;;;;;;4.20;1.20;;;;;;;36.61;21.70;99948.28;5054107;28;20081;-71
2022/10/16 09:37:20;;;;;;;;;;;;;;;;;;;;;
2022/10/16 09:39:54;;;;;;;7.03;1.30;;;;;;;35.82;19.50;99945.06;5067078;28;20095;-71
2022/10/16 09:42:32;;;;;;;;;;;;;;;36.20;19.11;99952.84;5065523;28;20059;-71
2022/10/16 09:44:58;;;;;;;8.20;1.50;;;;;;;35.79;18.87;99940.28;5082604;28;19924;-70
2022/10/16 09:47:27;;;;;;;9.50;1.85;;;;;;;35.52;19.16;99949.97;5050696;28;20074;-70
2022/10/16 09:49:55;;;;;;;4.85;1.45;;;;;;;36.27;19.57;99958.28;5063651;28;20094;-72
2022/10/16 09:52:21;;;;;;;5.57;1.02;;;;;;;37.40;18.97;99958.22;5051867;28;20099;-70
2022/10/16 09:54:56;;;;;;;3.70;1.10;;;;;;;37.40;18.81;99955.38;5050243;28;20309;-71
2022/10/16 09:57:22;;;;;;;7.47;2.05;;;;;;;35.91;19.74;99952.91;5067792;28;20028;-72
2022/10/16 09:59:58;;;;;;;10.77;3.17;;;;;;;32.75;21.95;99942.72;5046832;28;20028;-72
2022/10/16 10:02:30;;;;;;;6.07;1.58;;;;;;;31.41;23.77;99948.56;5049743;28;20057;-72
2022/10/16 10:04:56;;;;;;;5.05;1.33;;;;;;;31.56;24.34;99938.75;5047641;28;20100;-72
2022/10/16 10:07:34;;;;;;;5.93;2.15;;;;;;;32.73;23.73;99936.69;5068402;28;20035;-71
2022/10/16 10:10:03;;;;;;;6.30;1.80;;;;;;;33.79;22.87;99933.50;5052923;28;20570;-72
2022/10/16 10:12:32;;;;;;;5.35;1.98;;;;;;;35.29;21.85;99936.81;5075415;28;20029;-72
2022/10/16 10:15:12;;;;;;;8.80;1.70;;;;;;;35.80;20.59;99948.34;5058264;28;20565;-70
2022/10/16 10:18:21;;;;;;;7.80;1.45;;;;;;;35.03;21.13;99947.22;5051003;28;20052;-71
2022/10/16 10:20:58;;;;;;;5.95;1.65;;;;;;;33.91;22.32;99945.00;5062415;28;20128;-71
2022/10/16 10:23:26;;;;;;;5.60;1.00;;;;;;;34.48;22.63;99942.09;5049979;28;20033;-74
2022/10/16 10:25:59;;;;;;;3.58;1.15;;;;;;;35.18;21.66;99939.94;5058567;28;20020;-71
2022/10/16 10:28:41;;;;;;;8.68;1.77;;;;;;;35.44;20.67;99942.88;5062584;28;20042;-72
2022/10/16 10:31:29;;;;;;;3.95;1.13;;;;;;;35.73;21.16;99947.75;5073366;28;20043;-71
2022/10/16 10:34:09;;;;;;;3.80;1.45;;;;;;;34.63;20.79;99953.09;5066495;28;20017;-72
2022/10/16 10:36:40;;;;;;;9.30;1.80;;;;;;;33.23;22.09;99957.69;5078944;28;20033;-71
2022/10/16 10:39:35;;;;;;;5.32;1.48;;;;;;;32.60;23.14;99949.84;5046638;28;20025;-70
2022/10/16 10:42:34;;;;;;;5.38;1.27;;;;;;;33.06;23.32;99948.28;5052863;28;20029;-72
2022/10/16 10:45:20;;;;;;;4.85;1.52;;;;;;;34.77;22.03;99944.22;5070251;28;20020;-72
2022/10/16 10:47:52;;;;;;;7.72;1.63;;;;;;;35.01;20.90;99949.72;5071995;28;20119;-71
2022/10/16 10:50:33;;;;;;;8.20;1.65;;;;;;;35.19;21.27;99944.34;5053154;28;20020;-72
2022/10/16 10:53:29;;;;;;;3.42;1.20;;;;;;;37.09;20.33;99944.66;5064931;28;20028;-73
2022/10/16 10:56:06;;;;;;;5.55;1.73;;;;;;;38.36;19.17;99947.25;5053583;28;20090;-72
2022/10/16 10:59:12;;;;;;;6.05;1.50;;;;;;;38.93;18.58;99942.03;5050710;28;20033;-70
2022/10/16 11:02:03;;;;;;;4.93;1.48;;;;;;;39.59;16.71;99940.00;5023487;28;20036;-71
2022/10/16 11:04:38;;;;;;;5.00;1.30;;;;;;;38.06;18.22;99944.72;5070228;28;20040;-71
2022/10/16 11:07:18;;;;;;;5.47;1.67;;;;;;;35.56;19.90;99936.44;5064854;28;20029;-71
2022/10/16 11:09:59;;;;;;;4.88;1.33;;;;;;;35.79;20.70;99945.97;5054316;28;20051;-71
2022/10/16 11:12:42;;;;;;;8.65;1.50;;;;;;;35.46;20.68;99946.88;5054506;28;20043;-71
2022/10/16 11:15:12;;;;;;;5.88;1.88;;;;;;;35.84;19.97;99934.03;5076612;28;20074;-72
2022/10/16 11:18:07;;;;;;;6.13;1.45;;;;;;;37.31;19.60;99942.66;5067331;28;20091;-71
2022/10/16 11:20:39;;;;;;;4.45;1.00;;;;;;;39.89;18.20;99940.22;5066316;28;20076;-69
2022/10/16 11:23:13;;;;;;;5.05;1.42;;;;;;;40.38;16.38;99944.00;5071701;28;20496;-71
2022/10/16 11:25:38;;;;;;;;;;;;;;;39.06;16.86;99939.03;5048576;28;20379;-72
2022/10/16 11:28:29;;;;;;;11.98;2.00;;;;;;;37.50;17.76;99937.09;5071092;28;19987;-71
2022/10/16 11:31:10;;;;;;;8.70;1.58;;;;;;;36.56;18.76;99940.31;5057021;28;20029;-69
2022/10/16 11:33:41;;;;;;;6.25;1.40;;;;;;;35.43;20.17;99947.00;5075076;28;20020;-71
2022/10/16 11:36:39;;;;;;;3.45;1.23;;;;;;;34.17;20.97;99939.56;5059525;28;20107;-73
2022/10/16 11:39:25;;;;;;;9.50;1.73;;;;;;;32.32;22.52;99940.56;5072916;28;20044;-71
2022/10/16 11:41:59;;;;;;;7.05;1.60;;;;;;;31.81;23.79;99941.25;5060688;28;20194;-71
2022/10/16 11:44:34;;;;;;;6.72;1.58;;;;;;;33.63;22.50;99935.03;5059007;28;20028;-70
2022/10/16 11:47:28;;;;;;;7.47;1.85;;;;;;;35.68;20.62;99931.25;5060357;28;20036;-71
2022/10/16 11:50:01;;;;;;;9.57;2.13;;;;;;;36.73;19.46;99925.94;5067806;28;20020;-71
2022/10/16 11:52:30;;;;;;;9.77;1.83;;;;;;;36.88;18.93;99926.28;5053927;28;20470;-70